Time;durP1;ratioP1;P1;durP2;ratioP2;P2;SDS_P1;SDS_P2;PMS_P1;PMS_P2;Temp;Humidity;BMP_temperature;BMP_pressure;BME280_temperature;BME280_humidity;BME280_pressure;Samples;Min_cycle;Max_cycle;Signal;HPM_P1;HPM_P2
2024/04/11 18:09:01;;;;;;;6.20;2.40;;;15.40;99.90;;;;;;4588101;23;20262;-77
2024/04/11 18:11:27;;;;;;;4.77;2.13;;;15.30;99.90;;;;;;4882145;29;20578;-71
2024/04/11 18:13:54;;;;;;;3.00;2.33;;;15.20;99.90;;;;;;4877879;29;20206;-72
2024/04/11 18:16:20;;;;;;;6.50;2.57;;;15.10;99.90;;;;;;4878662;29;20231;-72
2024/04/11 18:18:48;;;;;;;4.53;2.97;;;15.00;99.90;;;;;;4880396;29;20322;-76
2024/04/11 18:21:14;;;;;;;5.13;2.53;;;15.10;99.90;;;;;;4881625;29;20208;-76
2024/04/11 18:23:42;;;;;;;5.00;2.27;;;15.20;99.90;;;;;;4881045;29;20238;-75
2024/04/11 18:26:15;;;;;;;3.90;2.23;;;15.20;99.90;;;;;;4881020;29;20234;-72
2024/04/11 18:28:43;;;;;;;5.07;2.50;;;15.10;99.90;;;;;;4875429;29;20286;-75
2024/04/11 18:31:16;;;;;;;5.20;2.67;;;15.00;99.90;;;;;;4880920;29;20290;-74
2024/04/11 18:33:47;;;;;;;3.53;2.53;;;14.90;99.90;;;;;;4880908;29;20218;-76
2024/04/11 18:36:23;;;;;;;6.87;2.87;;;14.90;99.90;;;;;;4879689;29;20234;-76
2024/04/11 18:38:51;;;;;;;7.27;2.97;;;14.70;99.90;;;;;;4881238;29;20297;-71
2024/04/11 18:41:29;;;;;;;7.60;2.77;;;14.60;99.90;;;;;;4880793;29;20207;-75
2024/04/11 18:43:58;;;;;;;4.43;2.63;;;14.60;99.90;;;;;;4880586;29;20234;-72
2024/04/11 18:46:29;;;;;;;5.20;2.83;;;14.60;99.90;;;;;;4880449;29;20223;-76
2024/04/11 18:48:59;;;;;;;3.90;2.70;;;14.60;99.90;;;;;;4880649;29;20696;-72
2024/04/11 18:51:32;;;;;;;8.23;2.80;;;14.60;99.90;;;;;;4880775;29;20239;-76
2024/04/11 18:54:00;;;;;;;4.50;2.53;;;14.60;99.90;;;;;;4880452;29;20214;-76
2024/04/11 18:56:30;;;;;;;5.77;3.53;;;14.50;99.90;;;;;;4881292;29;20235;-76
2024/04/11 18:59:00;;;;;;;6.93;3.57;;;14.60;99.90;;;;;;4880982;29;20585;-75
2024/04/11 19:01:46;;;;;;;5.07;2.73;;;14.60;99.90;;;;;;4880488;29;20289;-76
2024/04/11 19:04:30;;;;;;;3.90;2.50;;;14.70;99.90;;;;;;4873875;29;20412;-76
2024/04/11 19:07:02;;;;;;;6.07;3.10;;;14.70;99.90;;;;;;4880522;29;20267;-76
2024/04/11 19:09:28;;;;;;;4.87;2.37;;;14.70;99.90;;;;;;4880571;29;20215;-76
2024/04/11 19:11:57;;;;;;;5.90;2.87;;;14.70;99.90;;;;;;4880553;29;20215;-77
2024/04/11 19:14:29;;;;;;;6.83;2.90;;;14.80;99.90;;;;;;4880114;29;20234;-74
2024/04/11 19:17:00;;;;;;;5.23;2.57;;;14.70;99.90;;;;;;4880160;29;20227;-78
2024/04/11 19:19:27;;;;;;;7.13;2.57;;;14.70;99.90;;;;;;4880320;29;20667;-76
2024/04/11 19:21:55;;;;;;;3.63;2.67;;;14.60;99.90;;;;;;4879828;29;20214;-75
2024/04/11 19:24:21;;;;;;;3.60;2.53;;;14.70;99.90;;;;;;4880015;29;20207;-76
2024/04/11 19:26:50;;;;;;;5.47;2.93;;;14.70;99.90;;;;;;4879802;29;20314;-73
2024/04/11 19:29:22;;;;;;;5.00;2.60;;;14.70;99.90;;;;;;4880226;29;20221;-74
2024/04/11 19:31:51;;;;;;;5.23;2.67;;;14.70;99.90;;;;;;4879739;29;20259;-77
2024/04/11 19:34:24;;;;;;;5.33;2.70;;;14.70;99.90;;;;;;4880145;29;20219;-72
2024/04/11 19:36:53;;;;;;;5.33;2.57;;;14.70;99.90;;;;;;4875309;29;20632;-72
2024/04/11 19:39:24;;;;;;;4.63;2.93;;;14.70;99.90;;;;;;4875218;29;20267;-72
2024/04/11 19:41:51;;;;;;;5.17;3.20;;;14.70;99.90;;;;;;4879870;29;20219;-72
2024/04/11 19:44:19;;;;;;;6.40;2.70;;;14.80;99.90;;;;;;4879330;29;20218;-75
2024/04/11 19:46:46;;;;;;;3.93;2.87;;;14.80;99.90;;;;;;4879555;29;20594;-76
2024/04/11 19:49:16;;;;;;;3.73;2.70;;;14.80;99.90;;;;;;4879530;29;20275;-72
2024/04/11 19:51:49;;;;;;;7.63;3.17;;;14.80;99.90;;;;;;4879738;29;20211;-75
2024/04/11 19:54:19;;;;;;;4.20;2.67;;;14.90;99.90;;;;;;4879313;29;20215;-71
2024/04/11 19:56:46;;;;;;;4.77;2.80;;;14.90;99.90;;;;;;4879667;29;20362;-73
2024/04/11 19:59:12;;;;;;;8.67;3.10;;;14.90;99.90;;;;;;4879605;29;20203;-72
2024/04/11 20:01:48;;;;;;;5.07;2.83;;;14.90;99.90;;;;;;4879892;29;20211;-72
2024/04/11 20:04:19;;;;;;;3.50;2.63;;;14.90;99.90;;;;;;4878955;29;20215;-72
2024/04/11 20:06:48;;;;;;;5.03;2.80;;;14.90;99.90;;;;;;4879460;29;20728;-74
2024/04/11 20:09:15;;;;;;;4.30;2.83;;;15.00;99.90;;;;;;4879207;29;20722;-75
2024/04/11 20:11:44;;;;;;;6.70;3.10;;;14.90;99.90;;;;;;4877279;29;20234;-76
2024/04/11 20:17:16;;;;;;;4.23;2.97;;;14.90;99.90;;;;;;4878830;29;20239;-77
2024/04/11 20:19:45;;;;;;;5.37;2.90;;;14.90;99.90;;;;;;4879347;29;20287;-76
2024/04/11 20:22:18;;;;;;;4.47;2.67;;;15.00;99.90;;;;;;4879455;29;20268;-76
2024/04/11 20:24:52;;;;;;;3.60;2.80;;;15.00;99.90;;;;;;4878954;29;20215;-73
2024/04/11 20:27:21;;;;;;;4.53;2.97;;;14.90;99.90;;;;;;4878761;29;20206;-75
2024/04/11 20:29:47;;;;;;;6.67;3.90;;;14.90;99.90;;;;;;4878958;29;20309;-75
2024/04/11 20:32:24;;;;;;;4.50;3.17;;;14.90;99.90;;;;;;4879709;29;20243;-73
2024/04/11 20:34:52;;;;;;;7.33;3.37;;;15.00;99.90;;;;;;4879130;29;20203;-73
2024/04/11 20:37:22;;;;;;;4.07;2.90;;;15.00;99.90;;;;;;4879105;29;20208;-76
2024/04/11 20:39:51;;;;;;;8.83;3.07;;;15.10;99.90;;;;;;4879051;29;20234;-76
2024/04/11 20:42:41;;;;;;;7.13;2.97;;;15.00;99.90;;;;;;4878924;29;20258;-75
2024/04/11 20:45:11;;;;;;;5.83;2.87;;;15.00;99.90;;;;;;4876683;29;20231;-76
2024/04/11 20:47:54;;;;;;;4.43;2.80;;;15.00;99.90;;;;;;4878376;29;20243;-75
